Time;durP1;ratioP1;P1;durP2;ratioP2;P2;SDS_P1;SDS_P2;PMS_P1;PMS_P2;Temp;Humidity;BMP_temperature;BMP_pressure;BME280_temperature;BME280_humidity;BME280_pressure;Samples;Min_cycle;Max_cycle;Signal;HPM_P1;HPM_P2
2024/01/19 00:01:32;;;;;;;10.40;7.80;;;-2.40;99.90;;;;;;5037790;28;20201;-64
2024/01/19 00:04:01;;;;;;;12.57;7.70;;;-2.40;99.90;;;;;;5043514;28;20227;-64
2024/01/19 00:06:29;;;;;;;14.03;8.70;;;-2.40;99.90;;;;;;5041810;28;20227;-64
2024/01/19 00:08:58;;;;;;;12.87;8.10;;;-2.40;99.90;;;;;;5038092;28;20231;-64
2024/01/19 00:11:27;;;;;;;13.33;8.30;;;-2.40;99.90;;;;;;5044776;28;20227;-64
2024/01/19 00:13:55;;;;;;;16.73;7.83;;;-2.50;99.90;;;;;;5041208;28;20250;-64
2024/01/19 00:16:23;;;;;;;16.10;7.50;;;-2.40;99.90;;;;;;5046831;28;20212;-64
2024/01/19 00:18:52;;;;;;;11.60;7.93;;;-2.40;99.90;;;;;;5041377;28;20240;-64
2024/01/19 00:21:20;;;;;;;11.97;7.60;;;-2.50;99.90;;;;;;5043475;28;20217;-64
2024/01/19 00:23:49;;;;;;;15.70;8.37;;;-2.50;99.90;;;;;;5039889;28;20593;-64
2024/01/19 00:26:19;;;;;;;15.27;7.43;;;-2.40;99.90;;;;;;5041866;28;20231;-64
2024/01/19 00:28:48;;;;;;;11.20;7.60;;;-2.40;99.90;;;;;;5046043;28;20192;-65
2024/01/19 00:31:17;;;;;;;11.07;7.77;;;-2.30;99.90;;;;;;5041345;28;20217;-65
2024/01/19 00:33:46;;;;;;;17.07;7.87;;;-2.20;99.90;;;;;;5041565;28;20209;-65
2024/01/19 00:36:15;;;;;;;12.97;7.30;;;-2.10;99.90;;;;;;5043251;28;20315;-65
2024/01/19 00:38:44;;;;;;;9.20;6.73;;;-2.20;99.90;;;;;;5042641;28;20722;-65
2024/01/19 00:41:13;;;;;;;10.37;7.00;;;-2.20;99.90;;;;;;5044655;28;20698;-64
2024/01/19 00:43:42;;;;;;;17.60;6.90;;;-2.10;99.90;;;;;;5043581;28;20243;-65
2024/01/19 00:46:11;;;;;;;9.23;6.23;;;-2.10;99.90;;;;;;5042249;28;20223;-65
2024/01/19 00:48:40;;;;;;;10.90;6.67;;;-2.10;99.90;;;;;;5043569;28;20236;-65
2024/01/19 00:51:08;;;;;;;8.57;6.50;;;-2.00;99.90;;;;;;5041794;28;20308;-65
2024/01/19 00:53:37;;;;;;;15.10;6.37;;;-1.90;99.90;;;;;;5043422;28;20220;-65
2024/01/19 00:56:07;;;;;;;13.00;6.90;;;-1.90;99.90;;;;;;5041032;28;20196;-64
2024/01/19 00:58:35;;;;;;;10.90;6.50;;;-1.90;99.90;;;;;;5045010;28;20307;-64
2024/01/19 01:01:05;;;;;;;8.60;6.23;;;-1.90;99.90;;;;;;5040714;28;20221;-64
2024/01/19 01:03:34;;;;;;;7.27;6.07;;;-1.70;99.90;;;;;;5043910;28;20221;-64
2024/01/19 01:06:03;;;;;;;10.90;5.63;;;-1.70;99.90;;;;;;5042649;28;20215;-65
2024/01/19 01:08:35;;;;;;;11.00;6.87;;;-1.60;99.90;;;;;;5046049;28;20300;-65
2024/01/19 01:11:05;;;;;;;9.37;6.53;;;-1.60;99.90;;;;;;5045383;28;20201;-65
2024/01/19 01:13:33;;;;;;;14.27;5.87;;;-1.60;99.90;;;;;;5043347;28;20188;-65
2024/01/19 01:16:02;;;;;;;12.17;6.63;;;-1.60;99.90;;;;;;5040837;28;20227;-64
2024/01/19 01:18:32;;;;;;;10.70;6.63;;;-1.50;99.90;;;;;;5043237;28;20613;-64
2024/01/19 01:21:01;;;;;;;10.73;6.97;;;-1.50;99.90;;;;;;5041898;28;20216;-64
2024/01/19 01:23:30;;;;;;;14.43;6.63;;;-1.40;99.90;;;;;;5037159;28;20231;-64
2024/01/19 01:25:59;;;;;;;12.30;7.20;;;-1.40;99.90;;;;;;5058144;28;20234;-64
2024/01/19 01:28:27;;;;;;;14.23;7.27;;;-1.40;99.90;;;;;;5044652;28;20216;-64
2024/01/19 01:30:55;;;;;;;17.63;7.47;;;-1.40;99.90;;;;;;5042805;28;20328;-64
2024/01/19 01:33:24;;;;;;;13.20;7.40;;;-1.40;99.90;;;;;;5039571;28;20249;-64
2024/01/19 01:35:54;;;;;;;10.30;7.10;;;-1.30;99.90;;;;;;5047938;28;20224;-64
2024/01/19 01:38:22;;;;;;;17.77;8.00;;;-1.30;99.90;;;;;;5045913;28;20249;-63
2024/01/19 01:40:50;;;;;;;11.60;7.60;;;-1.30;99.90;;;;;;5042118;28;20272;-64
2024/01/19 01:43:23;;;;;;;14.53;7.17;;;-1.30;99.90;;;;;;5041326;28;20224;-64
2024/01/19 01:45:52;;;;;;;13.37;7.43;;;-1.30;99.90;;;;;;5042843;28;20217;-64
2024/01/19 01:48:21;;;;;;;14.13;7.50;;;-1.40;99.90;;;;;;5042786;28;20316;-64
2024/01/19 01:50:50;;;;;;;12.70;7.77;;;-1.50;99.90;;;;;;5045590;28;20221;-64
2024/01/19 01:53:21;;;;;;;11.27;7.33;;;-1.50;99.90;;;;;;5046896;28;21262;-64
2024/01/19 01:55:49;;;;;;;10.40;7.60;;;-1.50;99.90;;;;;;5044825;28;20189;-64
2024/01/19 01:58:18;;;;;;;12.20;7.87;;;-1.60;99.90;;;;;;5042955;28;20220;-64
2024/01/19 02:00:47;;;;;;;14.13;7.60;;;-1.70;99.90;;;;;;5045602;28;20244;-65
2024/01/19 02:03:16;;;;;;;15.50;8.30;;;-1.70;99.90;;;;;;5045319;28;20221;-65
2024/01/19 02:05:44;;;;;;;14.27;7.47;;;-1.80;99.90;;;;;;5046454;28;20225;-65
2024/01/19 02:08:12;;;;;;;10.40;7.20;;;-1.90;99.90;;;;;;5047383;28;20212;-65
2024/01/19 02:10:42;;;;;;;14.90;8.00;;;-1.90;99.90;;;;;;5050697;28;20203;-65
2024/01/19 02:13:11;;;;;;;12.20;7.20;;;-2.00;99.90;;;;;;5043619;28;20213;-65
2024/01/19 02:15:39;;;;;;;10.70;7.50;;;-2.00;99.90;;;;;;5045951;28;20217;-64
2024/01/19 02:18:07;;;;;;;14.43;8.07;;;-2.00;99.90;;;;;;5044831;28;20628;-64
2024/01/19 02:20:36;;;;;;;16.53;8.53;;;-2.00;99.90;;;;;;5044088;28;20317;-65
2024/01/19 02:23:10;;;;;;;11.80;7.70;;;-2.10;99.90;;;;;;5041253;28;20216;-64
2024/01/19 02:25:40;;;;;;;20.03;7.40;;;-2.10;99.90;;;;;;5047153;28;20598;-64
2024/01/19 02:28:08;;;;;;;12.27;7.90;;;-2.20;99.90;;;;;;5047025;28;20689;-64
2024/01/19 02:30:38;;;;;;;15.83;7.67;;;-2.30;99.90;;;;;;5044147;28;20312;-64
2024/01/19 02:33:06;;;;;;;14.43;7.37;;;-2.30;99.90;;;;;;5044939;28;20304;-64
2024/01/19 02:35:34;;;;;;;11.57;8.00;;;-2.40;99.90;;;;;;5047576;28;20246;-64
2024/01/19 02:38:03;;;;;;;14.60;7.83;;;-2.40;99.90;;;;;;5044267;28;20185;-63
2024/01/19 02:40:31;;;;;;;16.17;8.10;;;-2.40;99.90;;;;;;5042341;28;20189;-64
2024/01/19 02:43:01;;;;;;;10.90;7.87;;;-2.30;99.90;;;;;;5046790;28;20563;-64
2024/01/19 02:45:29;;;;;;;13.93;7.47;;;-2.20;99.90;;;;;;5044252;28;20240;-64
2024/01/19 02:47:57;;;;;;;15.37;8.27;;;-2.20;99.90;;;;;;5047624;28;20226;-64
2024/01/19 02:50:25;;;;;;;13.77;7.97;;;-2.20;99.90;;;;;;5043051;28;20210;-64
2024/01/19 02:52:54;;;;;;;17.37;8.47;;;-2.20;99.90;;;;;;5044817;28;20280;-63
2024/01/19 02:55:22;;;;;;;16.63;8.10;;;-2.30;99.90;;;;;;5041334;28;20227;-63
2024/01/19 02:57:50;;;;;;;11.73;7.83;;;-2.30;99.90;;;;;;5045409;28;20242;-64
2024/01/19 03:00:20;;;;;;;15.07;9.10;;;-2.30;99.90;;;;;;5043710;28;20588;-64
2024/01/19 03:02:48;;;;;;;18.77;8.60;;;-2.40;99.90;;;;;;5043531;28;20305;-64
2024/01/19 03:05:16;;;;;;;17.00;8.37;;;-2.40;99.90;;;;;;5040186;28;20212;-64
2024/01/19 03:07:45;;;;;;;13.10;7.70;;;-2.40;99.90;;;;;;5045198;28;20197;-64
2024/01/19 03:10:13;;;;;;;17.63;8.40;;;-2.50;99.90;;;;;;5046870;28;20405;-64
2024/01/19 03:12:42;;;;;;;12.83;7.87;;;-2.50;99.90;;;;;;5044568;28;20240;-64
2024/01/19 03:15:10;;;;;;;15.00;8.23;;;-2.60;99.90;;;;;;5041841;28;20224;-64
2024/01/19 03:17:40;;;;;;;15.93;8.77;;;-2.60;99.90;;;;;;5043002;28;20221;-64
2024/01/19 03:20:09;;;;;;;12.67;7.87;;;-2.60;99.90;;;;;;5044218;28;21234;-64
2024/01/19 03:22:37;;;;;;;17.53;8.30;;;-2.70;99.90;;;;;;5045867;28;20207;-64
2024/01/19 03:25:06;;;;;;;13.67;8.20;;;-2.70;99.90;;;;;;5043785;28;20220;-64
2024/01/19 03:27:34;;;;;;;17.37;8.90;;;-2.80;99.90;;;;;;5042872;28;20217;-64
2024/01/19 03:30:03;;;;;;;20.37;8.43;;;-2.80;99.90;;;;;;5042699;28;20227;-64
2024/01/19 03:32:32;;;;;;;16.20;8.77;;;-2.80;99.90;;;;;;5047817;28;20225;-64
2024/01/19 03:35:02;;;;;;;15.40;9.13;;;-2.80;99.90;;;;;;5044099;28;20189;-64
2024/01/19 03:37:30;;;;;;;24.20;9.93;;;-2.80;99.90;;;;;;5045582;28;20292;-64
2024/01/19 03:39:58;;;;;;;16.27;9.33;;;-2.80;99.90;;;;;;5042122;28;20695;-64
2024/01/19 03:42:28;;;;;;;19.20;9.93;;;-2.80;99.90;;;;;;5040750;28;20312;-64
2024/01/19 03:44:56;;;;;;;20.57;10.07;;;-2.70;99.90;;;;;;5045459;28;20244;-64
2024/01/19 03:47:24;;;;;;;18.27;10.57;;;-2.70;99.90;;;;;;5043840;28;20278;-64
2024/01/19 03:49:53;;;;;;;16.17;9.63;;;-2.80;99.90;;;;;;5044286;28;20201;-63
2024/01/19 03:52:23;;;;;;;22.63;10.97;;;-2.80;99.90;;;;;;5044423;28;20230;-64
2024/01/19 03:54:51;;;;;;;22.47;10.43;;;-2.80;99.90;;;;;;5044690;28;20217;-64
2024/01/19 03:57:19;;;;;;;20.57;10.97;;;-2.80;99.90;;;;;;5045147;28;20239;-64
2024/01/19 03:59:47;;;;;;;25.87;12.03;;;-2.80;99.90;;;;;;5044897;28;20270;-64
2024/01/19 04:02:16;;;;;;;19.50;10.73;;;-2.80;99.90;;;;;;5042365;28;20679;-64
2024/01/19 04:04:44;;;;;;;20.53;11.47;;;-2.80;99.90;;;;;;5047669;28;20213;-63
2024/01/19 04:07:13;;;;;;;24.07;11.77;;;-2.70;99.90;;;;;;5042853;28;20212;-64
2024/01/19 04:09:43;;;;;;;20.43;11.17;;;-2.80;99.90;;;;;;5045817;28;20267;-64
2024/01/19 04:12:13;;;;;;;22.43;11.17;;;-2.80;99.90;;;;;;5039713;28;20224;-64
2024/01/19 04:14:42;;;;;;;25.50;11.53;;;-2.90;99.90;;;;;;5043758;28;20217;-64
2024/01/19 04:17:11;;;;;;;18.27;10.97;;;-2.90;99.90;;;;;;5041433;28;20583;-64
2024/01/19 04:19:40;;;;;;;19.57;11.87;;;-3.00;99.90;;;;;;5040797;28;20293;-64
2024/01/19 04:22:09;;;;;;;26.37;12.33;;;-3.10;99.90;;;;;;5042945;28;20271;-64
2024/01/19 04:24:37;;;;;;;24.90;12.37;;;-3.20;99.90;;;;;;5042849;28;20536;-64
2024/01/19 04:27:07;;;;;;;24.77;12.10;;;-3.30;99.90;;;;;;5046417;28;20235;-64
2024/01/19 04:29:35;;;;;;;21.50;12.27;;;-3.40;99.90;;;;;;5045471;28;20216;-63
2024/01/19 04:32:03;;;;;;;27.70;13.60;;;-3.50;99.90;;;;;;5041382;28;20196;-62
2024/01/19 04:34:31;;;;;;;21.60;11.43;;;-3.60;99.90;;;;;;5044907;28;20604;-64
2024/01/19 04:37:00;;;;;;;21.07;11.30;;;-3.60;99.90;;;;;;5044556;28;20270;-64
2024/01/19 04:39:28;;;;;;;20.80;11.47;;;-3.70;99.90;;;;;;5044962;28;20229;-64
2024/01/19 04:41:57;;;;;;;35.27;14.67;;;-3.70;99.90;;;;;;5042060;28;20237;-63
2024/01/19 04:44:26;;;;;;;27.27;12.50;;;-3.70;99.90;;;;;;5045044;28;20619;-64
2024/01/19 04:46:54;;;;;;;33.27;13.07;;;-3.70;99.90;;;;;;5043059;28;20189;-64
2024/01/19 04:49:23;;;;;;;29.07;13.30;;;-3.80;99.90;;;;;;5041614;28;20213;-63
2024/01/19 04:51:51;;;;;;;27.67;14.03;;;-3.90;99.90;;;;;;5040308;28;20278;-63
2024/01/19 04:54:19;;;;;;;29.00;13.23;;;-3.90;99.90;;;;;;5041307;28;20646;-63
2024/01/19 04:56:47;;;;;;;28.53;12.37;;;-4.00;99.90;;;;;;5039122;28;20227;-64
2024/01/19 04:59:16;;;;;;;27.23;13.13;;;-4.10;99.90;;;;;;5041795;28;20224;-63
2024/01/19 05:01:45;;;;;;;24.33;13.53;;;-4.10;99.90;;;;;;5040600;28;20667;-64
2024/01/19 05:04:13;;;;;;;24.93;12.27;;;-4.20;99.90;;;;;;5041162;28;20586;-63
2024/01/19 05:06:42;;;;;;;26.07;12.87;;;-4.20;99.90;;;;;;5040843;28;20228;-63
2024/01/19 05:09:10;;;;;;;29.73;14.40;;;-4.20;99.90;;;;;;5042444;28;20224;-63
2024/01/19 05:11:38;;;;;;;23.50;12.40;;;-4.20;99.90;;;;;;5043072;28;20594;-63
2024/01/19 05:14:06;;;;;;;26.17;13.80;;;-4.30;99.90;;;;;;5041647;28;21164;-64
2024/01/19 05:16:35;;;;;;;27.73;13.17;;;-4.30;99.90;;;;;;5039870;28;20193;-64
2024/01/19 05:19:05;;;;;;;26.67;13.50;;;-4.30;99.90;;;;;;5044343;28;20591;-63
2024/01/19 05:21:33;;;;;;;24.50;13.30;;;-4.40;99.90;;;;;;5043949;28;20224;-63
2024/01/19 05:24:01;;;;;;;22.23;13.27;;;-4.40;99.90;;;;;;5046090;28;20236;-63
2024/01/19 05:26:29;;;;;;;29.90;13.50;;;-4.40;99.90;;;;;;5047991;28;20243;-64
2024/01/19 05:28:58;;;;;;;26.87;13.87;;;-4.40;99.90;;;;;;5046852;28;20218;-64
2024/01/19 05:31:26;;;;;;;30.07;14.83;;;-4.40;99.90;;;;;;5045931;28;20255;-64
2024/01/19 05:33:54;;;;;;;28.73;13.70;;;-4.40;99.90;;;;;;5045080;28;20299;-64
2024/01/19 05:36:24;;;;;;;26.30;14.03;;;-4.50;99.90;;;;;;5047240;28;20228;-64
2024/01/19 05:38:52;;;;;;;29.50;14.33;;;-4.60;99.90;;;;;;5045929;28;20579;-64
2024/01/19 05:41:21;;;;;;;31.90;14.67;;;-4.60;99.90;;;;;;5043873;28;20255;-64
2024/01/19 05:43:50;;;;;;;33.43;15.27;;;-4.70;99.90;;;;;;5044870;28;20205;-64
2024/01/19 05:46:18;;;;;;;33.80;14.57;;;-4.70;99.90;;;;;;5046566;28;20229;-64
2024/01/19 05:48:46;;;;;;;32.80;15.60;;;-4.70;99.90;;;;;;5048196;28;20216;-64
2024/01/19 05:51:15;;;;;;;30.90;14.83;;;-4.70;99.90;;;;;;5049032;28;20307;-64
2024/01/19 05:53:45;;;;;;;29.70;14.80;;;-4.80;99.90;;;;;;5045334;28;21464;-64
2024/01/19 05:56:13;;;;;;;32.70;16.00;;;-4.80;99.90;;;;;;5045964;28;21054;-64
2024/01/19 05:58:41;;;;;;;35.80;15.20;;;-4.90;99.90;;;;;;5047808;28;20188;-64
2024/01/19 06:01:09;;;;;;;32.07;16.10;;;-4.90;99.90;;;;;;5045905;28;20229;-64
2024/01/19 06:03:38;;;;;;;30.70;14.77;;;-5.00;99.90;;;;;;5044476;28;20263;-64
2024/01/19 06:06:07;;;;;;;27.70;14.47;;;-5.10;99.90;;;;;;5044622;28;20217;-64
2024/01/19 06:08:35;;;;;;;37.17;14.90;;;-5.10;99.90;;;;;;5045432;28;20216;-64
2024/01/19 06:11:08;;;;;;;33.87;14.83;;;-5.00;99.90;;;;;;5047561;28;20197;-63
2024/01/19 06:13:39;;;;;;;32.00;15.67;;;-5.00;99.90;;;;;;5047839;28;20185;-64
2024/01/19 06:16:07;;;;;;;29.97;15.43;;;-5.00;99.90;;;;;;5043288;28;20220;-64
2024/01/19 06:18:35;;;;;;;30.83;14.97;;;-5.10;99.90;;;;;;5042898;28;20221;-64
2024/01/19 06:21:09;;;;;;;31.90;14.93;;;-5.10;99.90;;;;;;5048117;28;20254;-64
2024/01/19 06:23:38;;;;;;;33.83;15.20;;;-5.20;99.90;;;;;;5046377;28;20223;-64
2024/01/19 06:26:11;;;;;;;29.30;14.30;;;-5.20;99.90;;;;;;5041074;28;20229;-64
2024/01/19 06:28:40;;;;;;;30.00;14.70;;;-5.20;99.90;;;;;;5045778;28;20599;-64
2024/01/19 06:31:10;;;;;;;40.27;15.00;;;-5.20;99.90;;;;;;5047347;28;20213;-64
2024/01/19 06:33:38;;;;;;;31.97;14.77;;;-5.20;99.90;;;;;;5043382;28;20217;-64
2024/01/19 06:36:09;;;;;;;31.70;15.13;;;-5.20;99.90;;;;;;5047229;28;20221;-64
2024/01/19 06:38:37;;;;;;;32.17;15.43;;;-5.20;99.90;;;;;;5045717;28;20598;-64
2024/01/19 06:41:05;;;;;;;28.50;14.13;;;-5.20;99.90;;;;;;5045483;28;20822;-64
2024/01/19 06:43:36;;;;;;;30.47;15.00;;;-5.20;99.90;;;;;;5044897;28;20191;-64
2024/01/19 06:46:06;;;;;;;34.53;14.87;;;-5.10;99.90;;;;;;5046397;28;20217;-64
2024/01/19 06:48:34;;;;;;;33.33;15.17;;;-5.10;99.90;;;;;;5043542;28;20221;-64
2024/01/19 06:51:03;;;;;;;35.87;15.47;;;-5.10;99.90;;;;;;5045169;28;20705;-64
2024/01/19 06:53:31;;;;;;;30.33;15.07;;;-5.10;99.90;;;;;;5043473;28;20587;-64
2024/01/19 06:56:00;;;;;;;28.47;15.00;;;-5.00;99.90;;;;;;5045245;28;20226;-64
2024/01/19 06:58:38;;;;;;;28.30;14.73;;;-5.00;99.90;;;;;;5044938;28;20212;-64
2024/01/19 07:01:06;;;;;;;29.83;15.90;;;-5.00;99.90;;;;;;5044467;28;20766;-64
2024/01/19 07:03:35;;;;;;;34.90;16.10;;;-5.00;99.90;;;;;;5043353;28;20220;-64
2024/01/19 07:06:04;;;;;;;35.40;16.03;;;-4.90;99.90;;;;;;5048786;28;21830;-64
2024/01/19 07:08:32;;;;;;;36.57;17.67;;;-4.90;99.90;;;;;;5043491;28;20231;-64
2024/01/19 07:11:00;;;;;;;39.30;17.63;;;-4.90;99.90;;;;;;5043912;28;20216;-64
2024/01/19 07:13:29;;;;;;;36.07;16.77;;;-5.00;99.90;;;;;;5042456;28;20218;-64
2024/01/19 07:15:58;;;;;;;33.30;16.47;;;-5.00;99.90;;;;;;5040368;28;20718;-64
2024/01/19 07:18:26;;;;;;;29.27;15.87;;;-5.10;99.90;;;;;;5046547;28;20233;-64
2024/01/19 07:20:55;;;;;;;34.13;16.20;;;-5.00;99.90;;;;;;5040680;28;20213;-64
2024/01/19 07:23:24;;;;;;;36.47;16.73;;;-5.00;99.90;;;;;;5042441;28;20221;-64
2024/01/19 07:25:52;;;;;;;34.07;16.43;;;-5.00;99.90;;;;;;5043979;28;20726;-64
2024/01/19 07:28:20;;;;;;;37.23;16.70;;;-5.00;99.90;;;;;;5044038;28;20231;-64
2024/01/19 07:30:48;;;;;;;37.23;16.93;;;-5.00;99.90;;;;;;5045074;28;20221;-64
2024/01/19 07:33:18;;;;;;;36.20;16.70;;;-5.10;99.90;;;;;;5041890;28;20221;-64
2024/01/19 07:35:58;;;;;;;39.33;16.90;;;-5.20;99.90;;;;;;5045099;28;20223;-64
2024/01/19 07:38:28;;;;;;;40.57;17.57;;;-5.20;99.90;;;;;;5034735;28;20224;-63
2024/01/19 07:40:58;;;;;;;38.97;17.70;;;-5.30;99.90;;;;;;5044494;28;20207;-64
2024/01/19 07:43:27;;;;;;;40.43;18.00;;;-5.30;99.90;;;;;;5041053;28;20242;-63
2024/01/19 07:45:55;;;;;;;40.00;17.47;;;-5.30;99.90;;;;;;5041558;28;20220;-64
2024/01/19 07:48:25;;;;;;;36.93;17.70;;;-5.40;99.90;;;;;;5042901;28;20240;-65
2024/01/19 07:50:53;;;;;;;42.00;18.47;;;-5.40;99.90;;;;;;5039390;28;20317;-64
2024/01/19 07:53:21;;;;;;;32.40;17.23;;;-5.40;99.90;;;;;;5041444;28;20201;-64
2024/01/19 07:55:50;;;;;;;40.42;21.73;;;-5.40;99.90;;;;;;5040791;28;20453;-64
2024/01/19 07:58:18;;;;;;;32.37;18.57;;;-5.30;99.90;;;;;;5041207;28;20224;-64
2024/01/19 08:00:46;;;;;;;37.80;18.73;;;-5.30;99.90;;;;;;5042320;28;20228;-64
2024/01/19 08:03:15;;;;;;;35.20;18.30;;;-5.30;99.90;;;;;;5038079;28;20692;-64
2024/01/19 08:05:45;;;;;;;39.67;19.53;;;-5.20;99.90;;;;;;5036361;28;20221;-64
2024/01/19 08:08:15;;;;;;;40.57;19.10;;;-5.20;99.90;;;;;;5043226;28;20193;-64
2024/01/19 08:10:43;;;;;;;38.97;18.10;;;-5.20;99.90;;;;;;5055047;28;20209;-64
2024/01/19 08:13:12;;;;;;;37.33;18.43;;;-5.30;99.90;;;;;;5043612;28;20583;-64
2024/01/19 08:15:40;;;;;;;40.03;19.10;;;-5.20;99.90;;;;;;5041102;28;20764;-64
2024/01/19 08:18:08;;;;;;;38.03;18.57;;;-5.20;99.90;;;;;;5044709;28;20252;-64
2024/01/19 08:20:36;;;;;;;40.37;19.67;;;-5.20;99.90;;;;;;5056587;28;20221;-64
2024/01/19 08:23:06;;;;;;;39.77;19.70;;;-5.20;99.90;;;;;;5044908;28;20201;-64
2024/01/19 08:25:34;;;;;;;38.87;19.50;;;-5.20;99.90;;;;;;5043351;28;20228;-64
2024/01/19 08:28:03;;;;;;;42.30;19.57;;;-5.10;99.90;;;;;;5042824;28;20540;-64
2024/01/19 08:30:32;;;;;;;37.73;19.27;;;-5.10;99.90;;;;;;5038965;28;20221;-64
2024/01/19 08:33:01;;;;;;;38.63;19.23;;;-5.10;99.90;;;;;;5042800;28;20654;-64
2024/01/19 08:35:30;;;;;;;43.33;19.17;;;-5.00;99.90;;;;;;5040317;28;20278;-64
2024/01/19 08:37:59;;;;;;;41.30;19.53;;;-4.90;99.90;;;;;;5041855;28;20200;-63
2024/01/19 08:40:29;;;;;;;39.57;19.87;;;-4.90;99.90;;;;;;5040752;28;20232;-63
2024/01/19 08:42:57;;;;;;;45.03;20.27;;;-4.80;99.90;;;;;;5040539;28;20991;-64
2024/01/19 08:45:29;;;;;;;41.97;20.50;;;-4.80;99.90;;;;;;5041074;28;20706;-64
2024/01/19 08:47:59;;;;;;;43.87;21.07;;;-4.70;99.90;;;;;;5042477;28;20587;-64
2024/01/19 08:50:28;;;;;;;49.87;24.27;;;-4.60;99.90;;;;;;5040574;28;24728;-64
2024/01/19 08:52:56;;;;;;;45.90;21.73;;;-4.60;99.90;;;;;;5036941;28;20192;-64
2024/01/19 08:55:25;;;;;;;46.17;22.43;;;-4.50;99.90;;;;;;5039484;28;20274;-64
2024/01/19 08:57:55;;;;;;;45.57;22.20;;;-4.50;99.90;;;;;;5036314;28;20221;-63
2024/01/19 09:00:24;;;;;;;48.43;21.83;;;-4.40;99.90;;;;;;5045986;28;20221;-63
2024/01/19 09:02:52;;;;;;;50.53;22.57;;;-4.40;99.90;;;;;;5040019;28;20217;-64
2024/01/19 09:05:31;;;;;;;43.57;21.00;;;-4.30;99.90;;;;;;5041965;28;20251;-64
2024/01/19 09:08:00;;;;;;;46.67;22.53;;;-4.30;99.90;;;;;;5058649;28;20216;-64
2024/01/19 09:10:29;;;;;;;47.63;23.17;;;-4.20;99.90;;;;;;5042972;28;20217;-64
2024/01/19 09:12:59;;;;;;;47.87;23.23;;;-4.10;99.90;;;;;;5047549;28;20278;-64
2024/01/19 09:15:27;;;;;;;41.43;21.17;;;-4.10;99.90;;;;;;5045865;28;20309;-64
2024/01/19 09:17:56;;;;;;;52.00;22.70;;;-4.00;99.90;;;;;;5041033;28;20225;-64
2024/01/19 09:20:24;;;;;;;43.57;22.53;;;-3.90;99.90;;;;;;5045320;28;20729;-64
2024/01/19 09:22:53;;;;;;;50.50;23.13;;;-3.70;99.90;;;;;;5045331;28;20652;-64
2024/01/19 09:25:21;;;;;;;52.57;24.17;;;-3.60;99.90;;;;;;5044720;28;20212;-64
2024/01/19 09:27:49;;;;;;;56.63;26.70;;;-3.40;99.90;;;;;;5046091;28;20619;-62
2024/01/19 09:30:20;;;;;;;58.20;26.77;;;-3.30;99.90;;;;;;5043921;28;20754;-62
2024/01/19 09:32:48;;;;;;;52.77;24.90;;;-3.20;99.90;;;;;;5042848;28;20223;-62
2024/01/19 09:35:16;;;;;;;52.43;25.63;;;-3.10;99.90;;;;;;5045064;28;20202;-62
2024/01/19 09:37:45;;;;;;;53.83;25.17;;;-3.00;99.90;;;;;;5045518;28;20197;-62
2024/01/19 09:40:15;;;;;;;48.07;23.80;;;-2.90;99.90;;;;;;5041039;28;20221;-62
2024/01/19 09:42:44;;;;;;;47.73;24.10;;;-2.80;99.90;;;;;;5043266;28;20240;-62
2024/01/19 09:45:17;;;;;;;50.73;24.17;;;-2.70;99.90;;;;;;5046403;28;20224;-62
2024/01/19 09:48:03;;;;;;;55.40;25.80;;;-2.50;99.90;;;;;;5044709;28;20750;-62
2024/01/19 09:50:35;;;;;;;51.43;27.43;;;-2.30;99.90;;;;;;5045708;28;20560;-63
2024/01/19 09:53:10;;;;;;;52.77;26.00;;;-2.10;99.90;;;;;;5044151;28;20200;-63
2024/01/19 09:55:39;;;;;;;53.40;25.13;;;-2.00;99.90;;;;;;5045381;28;20203;-62
2024/01/19 09:58:07;;;;;;;51.90;24.30;;;-1.80;99.90;;;;;;5045458;28;20212;-62
2024/01/19 10:00:36;;;;;;;46.13;23.17;;;-1.70;99.90;;;;;;5046486;28;20235;-63
2024/01/19 10:03:08;;;;;;;46.37;23.97;;;-1.60;99.90;;;;;;5044745;28;20216;-63
2024/01/19 10:05:37;;;;;;;46.70;22.70;;;-1.30;99.90;;;;;;5043960;28;20663;-62
2024/01/19 10:08:06;;;;;;;43.17;23.73;;;-1.10;99.90;;;;;;5039647;28;20223;-62
2024/01/19 10:10:38;;;;;;;47.23;23.80;;;-0.70;99.90;;;;;;5042403;28;20683;-63
2024/01/19 10:13:06;;;;;;;46.90;23.60;;;-0.40;99.90;;;;;;5046919;28;20221;-62
2024/01/19 10:15:35;;;;;;;42.67;24.10;;;-0.20;99.90;;;;;;5047304;28;20228;-63
2024/01/19 10:18:05;;;;;;;47.43;23.83;;;0.10;99.90;;;;;;5047841;28;20223;-63
2024/01/19 10:20:38;;;;;;;39.33;22.27;;;0.40;99.90;;;;;;5041528;28;20217;-63
2024/01/19 10:23:21;;;;;;;41.93;21.17;;;0.50;99.90;;;;;;5043787;28;20278;-62
2024/01/19 10:25:50;;;;;;;39.87;20.80;;;0.50;99.90;;;;;;5043807;28;20216;-62
2024/01/19 10:28:30;;;;;;;37.37;21.10;;;0.50;99.90;;;;;;5045797;28;20621;-63
2024/01/19 10:31:17;;;;;;;35.43;19.90;;;0.60;99.90;;;;;;5044794;28;20219;-63
2024/01/19 10:33:51;;;;;;;37.83;19.90;;;0.70;99.90;;;;;;5042111;28;20743;-63
2024/01/19 10:36:23;;;;;;;33.80;19.43;;;0.80;99.90;;;;;;5042263;28;20270;-63
2024/01/19 10:38:51;;;;;;;35.27;20.20;;;0.80;99.90;;;;;;5041633;28;20225;-63
2024/01/19 10:41:25;;;;;;;36.80;20.07;;;0.80;99.90;;;;;;5041945;28;20588;-63
2024/01/19 10:43:54;;;;;;;36.33;19.77;;;0.90;99.90;;;;;;5039318;28;20654;-63
2024/01/19 10:46:24;;;;;;;35.33;20.20;;;1.00;99.90;;;;;;5037566;28;20223;-63
2024/01/19 10:48:54;;;;;;;39.93;20.13;;;1.00;99.90;;;;;;5040819;28;20227;-64
2024/01/19 10:51:22;;;;;;;36.63;21.23;;;1.20;99.90;;;;;;5041737;28;20228;-64
2024/01/19 10:53:51;;;;;;;38.27;18.77;;;1.20;99.90;;;;;;5036091;28;20810;-64
2024/01/19 10:56:21;;;;;;;30.63;16.80;;;1.40;99.90;;;;;;5044210;28;20189;-64
2024/01/19 10:58:49;;;;;;;29.20;17.50;;;1.40;99.90;;;;;;5039622;28;20331;-64
2024/01/19 11:01:18;;;;;;;31.17;17.23;;;1.60;99.90;;;;;;5038728;28;20581;-64
2024/01/19 11:03:47;;;;;;;38.33;18.13;;;1.70;99.90;;;;;;5042776;28;20296;-64
2024/01/19 11:06:19;;;;;;;28.77;17.97;;;1.80;99.90;;;;;;5044924;28;20220;-64
2024/01/19 11:08:48;;;;;;;32.50;17.00;;;1.90;99.90;;;;;;5035179;28;20224;-64
2024/01/19 11:11:16;;;;;;;29.63;17.67;;;2.00;99.90;;;;;;5043782;28;20203;-64
2024/01/19 11:13:47;;;;;;;27.80;16.80;;;2.20;99.90;;;;;;5041333;28;20549;-64
2024/01/19 11:16:21;;;;;;;32.27;16.87;;;2.30;99.90;;;;;;5042950;28;20232;-63
2024/01/19 11:18:50;;;;;;;29.10;16.70;;;2.40;99.90;;;;;;5040179;28;20564;-64
2024/01/19 11:21:20;;;;;;;30.93;16.97;;;2.60;99.90;;;;;;5038046;28;20217;-63
2024/01/19 11:23:49;;;;;;;29.63;16.77;;;2.70;99.90;;;;;;5040973;28;20220;-64
2024/01/19 11:26:24;;;;;;;29.03;16.23;;;2.60;97.80;;;;;;5043698;28;20311;-63
2024/01/19 11:28:55;;;;;;;25.87;15.60;;;2.60;99.90;;;;;;5044654;28;20272;-64
2024/01/19 11:31:29;;;;;;;28.00;15.70;;;2.60;99.90;;;;;;5044185;28;20252;-64
2024/01/19 11:33:57;;;;;;;29.77;16.60;;;2.70;99.90;;;;;;5043575;28;20240;-63
2024/01/19 11:36:49;;;;;;;30.13;15.63;;;2.80;99.90;;;;;;5058041;28;20222;-64
2024/01/19 11:39:41;;;;;;;32.53;16.53;;;2.90;98.90;;;;;;5035562;28;20640;-64
2024/01/19 11:42:09;;;;;;;29.97;15.47;;;2.90;99.90;;;;;;5031766;28;20271;-64
2024/01/19 11:44:46;;;;;;;34.17;16.00;;;2.80;99.40;;;;;;5040865;28;20275;-64
2024/01/19 11:47:40;;;;;;;27.80;14.90;;;2.90;99.70;;;;;;5037217;28;20212;-64
2024/01/19 11:50:11;;;;;;;26.27;15.90;;;3.00;99.90;;;;;;5036222;28;20196;-63
2024/01/19 11:52:45;;;;;;;28.87;16.63;;;3.10;98.40;;;;;;5038212;28;20582;-64
2024/01/19 11:55:37;;;;;;;33.43;18.43;;;3.30;99.20;;;;;;5038207;28;20231;-64
2024/01/19 11:58:38;;;;;;;28.70;16.60;;;3.40;92.80;;;;;;5042917;28;20292;-64
2024/01/19 12:01:08;;;;;;;25.87;15.63;;;3.50;93.30;;;;;;5035116;28;20811;-64
2024/01/19 12:03:37;;;;;;;36.93;15.97;;;3.50;93.40;;;;;;5033607;28;20337;-64
2024/01/19 12:06:07;;;;;;;27.93;15.33;;;3.50;92.70;;;;;;5038512;28;20231;-64
2024/01/19 12:08:37;;;;;;;26.33;15.63;;;3.50;91.00;;;;;;5038961;28;20236;-64
2024/01/19 12:11:09;;;;;;;26.73;15.27;;;3.40;92.30;;;;;;5042942;28;20227;-64
2024/01/19 12:13:39;;;;;;;29.43;16.27;;;3.40;94.40;;;;;;5043794;28;20749;-64
2024/01/19 12:16:21;;;;;;;27.93;16.33;;;3.40;93.10;;;;;;5046216;28;20224;-63
2024/01/19 12:18:55;;;;;;;29.17;15.23;;;3.40;94.90;;;;;;5043169;28;20936;-64
2024/01/19 12:21:24;;;;;;;28.03;15.63;;;3.30;93.10;;;;;;5039991;28;20243;-64
2024/01/19 12:23:56;;;;;;;24.80;15.60;;;3.20;96.80;;;;;;5038122;28;20225;-64
2024/01/19 12:26:25;;;;;;;25.43;16.17;;;3.30;97.60;;;;;;5034469;28;24691;-64
2024/01/19 12:28:55;;;;;;;26.53;16.20;;;3.30;97.90;;;;;;5037456;28;20216;-64
2024/01/19 12:31:24;;;;;;;31.23;16.53;;;3.30;96.00;;;;;;5035335;28;20315;-64
2024/01/19 12:33:53;;;;;;;30.00;15.17;;;3.30;98.50;;;;;;5035847;28;20228;-64
2024/01/19 12:36:25;;;;;;;25.73;15.70;;;3.40;96.00;;;;;;5032708;28;20710;-63
2024/01/19 12:39:11;;;;;;;31.70;17.20;;;3.50;96.70;;;;;;5036523;28;20244;-63
2024/01/19 12:41:40;;;;;;;27.60;16.33;;;3.50;95.80;;;;;;5038614;28;20233;-64
2024/01/19 12:44:08;;;;;;;28.67;16.67;;;3.50;96.70;;;;;;5040877;28;20197;-63
2024/01/19 12:46:37;;;;;;;24.67;16.83;;;3.60;95.40;;;;;;5048100;28;20193;-63